Time;durP1;ratioP1;P1;durP2;ratioP2;P2;SDS_P1;SDS_P2;PMS_P1;PMS_P2;Temp;Humidity;BMP_temperature;BMP_pressure;BME280_temperature;BME280_humidity;BME280_pressure;Samples;Min_cycle;Max_cycle;Signal;HPM_P1;HPM_P2
2020/12/08 00:00:22;;;;;;;25.10;6.08;;;;;;;-10.84;100.00;102056.49;1775728;80;21123;-55
2020/12/08 00:02:50;;;;;;;22.20;7.28;;;;;;;-10.88;100.00;102048.53;1774142;80;21152;-56
2020/12/08 00:05:19;;;;;;;18.52;6.65;;;;;;;-10.90;100.00;102062.83;1775852;80;21369;-57
2020/12/08 00:07:47;;;;;;;21.17;8.58;;;;;;;-10.93;100.00;102049.80;1776460;80;21022;-57
2020/12/08 00:10:19;;;;;;;25.00;8.43;;;;;;;-10.95;100.00;102050.21;1780663;80;21057;-57
2020/12/08 00:12:50;;;;;;;29.05;7.15;;;;;;;-10.96;100.00;102052.75;1778817;80;21192;-59
2020/12/08 00:15:19;;;;;;;17.30;6.30;;;;;;;-10.98;100.00;102039.30;1760110;80;21059;-56
2020/12/08 00:17:47;;;;;;;20.05;6.67;;;;;;;-11.01;100.00;102035.55;1776255;79;21189;-56
2020/12/08 00:20:20;;;;;;;12.98;5.95;;;;;;;-11.04;100.00;102043.94;1779063;80;20988;-56
2020/12/08 00:22:48;;;;;;;18.73;7.60;;;;;;;-11.07;100.00;102041.42;1780085;79;21554;-56
2020/12/08 00:25:17;;;;;;;19.23;6.95;;;;;;;-11.11;100.00;102038.06;1772654;80;21188;-57
2020/12/08 00:27:45;;;;;;;13.32;5.83;;;;;;;-11.14;100.00;102022.95;1777913;79;21107;-57
2020/12/08 00:30:15;;;;;;;21.00;6.45;;;;;;;-11.16;100.00;101997.38;1776215;80;21162;-57
2020/12/08 00:32:44;;;;;;;14.47;5.55;;;;;;;-11.18;100.00;102021.71;1773132;79;21496;-57
2020/12/08 00:35:13;;;;;;;13.90;5.58;;;;;;;-11.21;100.00;102001.56;1773083;80;21008;-57
2020/12/08 00:37:45;;;;;;;17.05;6.22;;;;;;;-11.23;100.00;102025.50;1776270;79;21073;-57
2020/12/08 00:40:14;;;;;;;20.12;6.53;;;;;;;-11.25;100.00;102023.38;1765643;80;21819;-58
2020/12/08 00:43:00;;;;;;;11.50;5.80;;;;;;;-11.28;100.00;102016.70;1769255;80;21247;-57
2020/12/08 00:45:30;;;;;;;15.53;5.65;;;;;;;-11.30;100.00;102012.49;1742273;80;21147;-57
2020/12/08 00:47:59;;;;;;;17.10;6.28;;;;;;;-11.32;100.00;102017.97;1702216;83;21120;-57
2020/12/08 00:50:28;;;;;;;17.05;6.12;;;;;;;-11.36;100.00;102009.58;1742576;81;21039;-57
2020/12/08 00:52:56;;;;;;;34.33;9.15;;;;;;;-11.39;100.00;102012.09;1722488;82;21029;-57
2020/12/08 00:55:25;;;;;;;17.77;6.78;;;;;;;-11.42;100.00;102012.51;1744365;81;21286;-56
2020/12/08 00:57:54;;;;;;;20.20;6.78;;;;;;;-11.44;100.00;102011.66;1728826;82;21126;-57
2020/12/08 01:00:23;;;;;;;15.08;7.12;;;;;;;-11.47;100.00;102024.26;1756452;80;20982;-57
2020/12/08 01:02:51;;;;;;;23.70;6.97;;;;;;;-11.46;100.00;102027.19;1761523;79;20985;-56
2020/12/08 01:05:19;;;;;;;17.17;7.78;;;;;;;-11.48;100.00;102028.42;1772035;80;21140;-57
2020/12/08 01:07:50;;;;;;;25.70;8.15;;;;;;;-11.48;100.00;102019.62;1775547;79;21353;-56
2020/12/08 01:10:20;;;;;;;14.03;5.90;;;;;;;-11.49;100.00;102020.89;1773060;80;21703;-56
2020/12/08 01:12:48;;;;;;;19.55;7.55;;;;;;;-11.50;100.00;102028.86;1778131;79;21192;-56
2020/12/08 01:15:16;;;;;;;16.90;6.70;;;;;;;-11.53;100.00;102017.11;1773799;80;21198;-56
2020/12/08 01:17:45;;;;;;;19.35;7.03;;;;;;;-11.53;100.00;102029.69;1773887;80;21224;-56
2020/12/08 01:20:14;;;;;;;15.58;7.55;;;;;;;-11.55;100.00;102025.09;1764661;80;21303;-56
2020/12/08 01:22:43;;;;;;;24.37;7.47;;;;;;;-11.56;100.00;102025.91;1772695;80;20992;-56
2020/12/08 01:25:13;;;;;;;26.93;8.20;;;;;;;-11.56;100.00;102036.39;1719287;83;21159;-57
2020/12/08 01:27:42;;;;;;;18.62;7.40;;;;;;;-11.58;100.00;102025.09;1725985;81;20967;-57
2020/12/08 01:30:11;;;;;;;15.05;6.17;;;;;;;-11.58;100.00;102028.02;1743986;81;21006;-56
2020/12/08 01:32:41;;;;;;;23.65;7.58;;;;;;;-11.59;100.00;102023.41;1727391;81;22324;-57
2020/12/08 01:35:09;;;;;;;17.60;8.33;;;;;;;-11.60;100.00;102023.39;1713984;83;21030;-58
2020/12/08 01:37:38;;;;;;;17.70;7.12;;;;;;;-11.61;100.00;102015.02;1714513;82;21014;-57
2020/12/08 01:40:06;;;;;;;19.82;7.22;;;;;;;-11.61;100.00;102016.27;1769269;80;21152;-57
2020/12/08 01:42:35;;;;;;;19.10;7.62;;;;;;;-11.60;100.00;102029.27;1771517;80;21208;-57
2020/12/08 01:45:05;;;;;;;16.60;6.78;;;;;;;-11.61;100.00;102032.63;1771118;80;21366;-57
2020/12/08 01:47:33;;;;;;;16.20;6.78;;;;;;;-11.63;100.00;102015.45;1765436;80;21412;-57
2020/12/08 01:50:01;;;;;;;17.75;7.58;;;;;;;-11.64;100.00;102022.55;1766738;80;21091;-57
2020/12/08 01:52:30;;;;;;;13.93;6.05;;;;;;;-11.66;100.00;102024.24;1719057;82;21614;-57
2020/12/08 01:55:02;;;;;;;16.95;7.22;;;;;;;-11.67;100.00;102031.34;1719717;82;21151;-57
2020/12/08 01:57:33;;;;;;;21.17;6.83;;;;;;;-11.69;100.00;102025.91;1717569;81;22329;-57
2020/12/08 02:00:04;;;;;;;12.68;5.50;;;;;;;-11.69;100.00;102038.07;1734651;81;21588;-58
2020/12/08 02:02:35;;;;;;;17.77;7.30;;;;;;;-11.68;100.00;102038.48;1725122;82;21264;-57
2020/12/08 02:05:04;;;;;;;15.10;7.00;;;;;;;-11.68;100.00;102044.77;1746195;81;21004;-57
2020/12/08 02:07:33;;;;;;;15.55;6.42;;;;;;;-11.69;100.00;102030.52;1738066;82;21311;-58
2020/12/08 02:10:02;;;;;;;21.90;7.92;;;;;;;-11.68;100.00;102020.03;1676376;83;21363;-58
2020/12/08 02:12:32;;;;;;;15.53;7.05;;;;;;;-11.68;100.00;102015.84;1675543;83;21113;-56
2020/12/08 02:15:00;;;;;;;18.27;6.20;;;;;;;-11.69;100.00;102020.46;1701292;83;20989;-58
2020/12/08 02:17:30;;;;;;;16.65;7.47;;;;;;;-11.68;100.00;102018.78;1706335;83;21195;-56
2020/12/08 02:19:59;;;;;;;17.02;7.22;;;;;;;-11.69;100.00;102009.14;1740983;81;21210;-57
2020/12/08 02:22:28;;;;;;;18.42;7.10;;;;;;;-11.70;100.00;102009.13;1718456;82;21198;-56
2020/12/08 02:24:56;;;;;;;16.40;6.80;;;;;;;-11.69;100.00;102004.53;1725723;82;21191;-57
2020/12/08 02:27:25;;;;;;;17.77;6.95;;;;;;;-11.70;100.00;102016.28;1743433;81;21209;-57
2020/12/08 02:29:55;;;;;;;15.48;6.35;;;;;;;-11.71;100.00;102010.80;1734169;82;21247;-57
2020/12/08 02:32:25;;;;;;;19.75;7.78;;;;;;;-11.73;100.00;101991.11;1777229;80;21112;-57
2020/12/08 02:34:53;;;;;;;20.97;8.30;;;;;;;-11.74;100.00;102011.22;1770952;80;21367;-57
2020/12/08 02:37:22;;;;;;;16.32;7.00;;;;;;;-11.76;100.00;102018.35;1766345;80;21089;-57
2020/12/08 02:39:51;;;;;;;16.87;7.15;;;;;;;-11.79;100.00;102014.98;1774813;80;21136;-57
2020/12/08 02:42:19;;;;;;;19.25;7.92;;;;;;;-11.82;100.00;102002.02;1779349;80;20998;-56
2020/12/08 02:44:48;;;;;;;15.90;7.92;;;;;;;-11.84;100.00;102006.22;1765006;80;21179;-57
2020/12/08 02:47:16;;;;;;;18.12;7.42;;;;;;;-11.87;100.00;102017.95;1719682;82;21194;-58
2020/12/08 02:49:44;;;;;;;17.12;7.37;;;;;;;-11.88;100.00;102006.22;1719620;82;21180;-56
2020/12/08 02:52:14;;;;;;;16.73;6.50;;;;;;;-11.88;100.00;102012.51;1719760;82;21172;-58
2020/12/08 02:54:44;;;;;;;18.80;7.65;;;;;;;-11.89;100.00;102005.39;1714083;82;21645;-57
2020/12/08 02:57:12;;;;;;;16.75;7.33;;;;;;;-11.88;100.00;102001.20;1774430;80;21119;-57
2020/12/08 02:59:41;;;;;;;15.60;7.05;;;;;;;-11.89;100.00;102004.13;1768239;80;21190;-57
2020/12/08 03:02:10;;;;;;;20.52;7.67;;;;;;;-11.91;100.00;102003.27;1777045;80;20997;-56
2020/12/08 03:04:40;;;;;;;17.07;7.50;;;;;;;-11.93;100.00;102001.19;1758311;80;21577;-58
2020/12/08 03:07:08;;;;;;;20.48;7.42;;;;;;;-11.94;100.00;102002.42;1748793;80;21154;-56
2020/12/08 03:09:37;;;;;;;18.12;8.03;;;;;;;-11.95;100.00;101998.24;1768673;80;21180;-57
2020/12/08 03:12:11;;;;;;;17.15;6.87;;;;;;;-11.95;100.00;102000.76;1777068;80;21364;-56
2020/12/08 03:14:39;;;;;;;16.27;7.17;;;;;;;-11.95;100.00;102008.30;1762325;80;21222;-57
2020/12/08 03:17:10;;;;;;;12.98;6.33;;;;;;;-11.95;100.00;102009.14;1769830;80;21584;-57
2020/12/08 03:19:40;;;;;;;14.07;6.00;;;;;;;-11.95;100.00;102010.39;1762386;80;21074;-57
2020/12/08 03:22:09;;;;;;;19.00;6.37;;;;;;;-11.95;100.00;102014.59;1774611;80;20990;-56
2020/12/08 03:24:41;;;;;;;15.03;6.03;;;;;;;-11.97;100.00;102013.73;1775589;79;21365;-57
2020/12/08 03:27:10;;;;;;;21.05;7.20;;;;;;;-11.99;100.00;102014.16;1770988;80;21170;-58
2020/12/08 03:29:38;;;;;;;17.73;6.60;;;;;;;-12.02;100.00;102005.77;1765521;80;21625;-58
2020/12/08 03:32:08;;;;;;;15.68;6.45;;;;;;;-12.06;100.00;102012.05;1777037;80;21016;-57
2020/12/08 03:34:37;;;;;;;21.30;7.67;;;;;;;-12.08;100.00;102020.02;1771494;79;21187;-58
2020/12/08 03:37:06;;;;;;;17.05;7.62;;;;;;;-12.10;100.00;102009.94;1766968;80;21193;-58
2020/12/08 03:39:34;;;;;;;15.53;6.17;;;;;;;-12.13;100.00;102009.92;1767025;79;21083;-57
2020/12/08 03:42:03;;;;;;;19.50;8.18;;;;;;;-12.17;100.00;102028.34;1772481;80;21134;-57
2020/12/08 03:44:33;;;;;;;19.57;7.22;;;;;;;-12.17;100.00;102019.97;1774913;80;20973;-57
2020/12/08 03:47:03;;;;;;;14.95;6.58;;;;;;;-12.19;100.00;102013.70;1774295;80;21187;-56
2020/12/08 03:49:33;;;;;;;14.78;5.78;;;;;;;-12.22;100.00;102016.20;1774154;79;22296;-56
2020/12/08 03:52:01;;;;;;;14.68;6.60;;;;;;;-12.23;100.00;102026.23;1771951;80;20990;-57
2020/12/08 03:54:30;;;;;;;13.25;5.33;;;;;;;-12.27;100.00;102015.35;1782973;80;21136;-57
2020/12/08 03:57:01;;;;;;;16.35;6.95;;;;;;;-12.29;100.00;102017.01;1774980;80;21005;-57
2020/12/08 03:59:31;;;;;;;16.48;6.58;;;;;;;-12.32;100.00;102014.06;1777280;79;21155;-57
2020/12/08 04:02:02;;;;;;;12.45;5.72;;;;;;;-12.34;100.00;102015.74;1776106;80;21543;-57
2020/12/08 04:04:31;;;;;;;19.62;7.03;;;;;;;-12.33;100.00;102014.06;1771809;80;21026;-57
2020/12/08 04:07:00;;;;;;;14.07;6.20;;;;;;;-12.35;100.00;102023.25;1771457;80;21130;-57
2020/12/08 04:09:29;;;;;;;17.45;7.08;;;;;;;-12.36;100.00;102020.33;1779147;79;21199;-58
2020/12/08 04:11:57;;;;;;;14.23;6.80;;;;;;;-12.37;100.00;102017.41;1777242;80;21118;-57
2020/12/08 04:14:26;;;;;;;15.10;6.55;;;;;;;-12.37;100.00;102022.42;1770842;80;21188;-57
2020/12/08 04:16:54;;;;;;;18.57;7.53;;;;;;;-12.37;100.00;102027.03;1765566;80;21036;-57
2020/12/08 04:19:23;;;;;;;14.60;5.53;;;;;;;-12.36;100.00;102025.36;1748417;80;21073;-55
2020/12/08 04:21:51;;;;;;;15.60;6.42;;;;;;;-12.37;100.00;102022.42;1739515;80;21171;-56
2020/12/08 04:24:21;;;;;;;17.27;6.60;;;;;;;-12.38;100.00;102025.78;1721227;82;21096;-56
2020/12/08 04:26:50;;;;;;;17.05;7.03;;;;;;;-12.39;100.00;102028.69;1737837;81;21210;-57
2020/12/08 04:29:21;;;;;;;11.65;4.75;;;;;;;-12.40;100.00;102030.78;1746201;81;21155;-55
2020/12/08 04:31:51;;;;;;;25.20;7.95;;;;;;;-12.40;100.00;102023.25;1744074;81;21105;-56
2020/12/08 04:34:19;;;;;;;21.15;7.80;;;;;;;-12.41;100.00;102032.88;1748045;81;21044;-56
2020/12/08 04:36:48;;;;;;;16.80;7.22;;;;;;;-12.41;100.00;102035.81;1742727;81;21192;-56
2020/12/08 04:39:17;;;;;;;21.33;7.53;;;;;;;-12.42;100.00;102028.70;1750281;81;21249;-56
2020/12/08 04:41:45;;;;;;;13.80;6.58;;;;;;;-12.45;100.00;102027.42;1750013;81;21160;-56
2020/12/08 04:44:13;;;;;;;16.75;7.05;;;;;;;-12.48;99.95;102024.05;1746839;81;21193;-57
2020/12/08 04:46:42;;;;;;;17.77;6.65;;;;;;;-12.49;99.85;102036.20;1746678;81;21198;-56
2020/12/08 04:49:10;;;;;;;17.20;6.83;;;;;;;-12.53;99.82;102022.37;1718745;82;21170;-56
2020/12/08 04:51:39;;;;;;;19.98;6.95;;;;;;;-12.53;99.77;102022.37;1702104;82;21208;-56
2020/12/08 04:54:07;;;;;;;11.28;5.28;;;;;;;-12.54;99.68;102033.26;1723220;82;21039;-56
2020/12/08 04:56:35;;;;;;;16.40;6.08;;;;;;;-12.54;99.57;102019.44;1726656;82;21073;-55
2020/12/08 04:59:04;;;;;;;14.25;6.33;;;;;;;-12.53;99.44;102029.91;1728878;81;21115;-55
2020/12/08 05:01:32;;;;;;;13.53;6.05;;;;;;;-12.52;99.25;102031.58;1713020;80;21152;-55
2020/12/08 05:04:01;;;;;;;13.28;7.40;;;;;;;-12.52;99.13;102021.52;1774767;79;21147;-54
2020/12/08 05:06:30;;;;;;;16.95;7.05;;;;;;;-12.50;98.98;102029.05;1774893;79;21202;-56
2020/12/08 05:09:09;;;;;;;19.48;6.37;;;;;;;-12.48;98.87;102035.36;1774895;80;21104;-56
2020/12/08 05:11:37;;;;;;;20.17;7.70;;;;;;;-12.47;98.73;102027.81;1773586;80;21189;-58
2020/12/08 05:14:06;;;;;;;17.02;5.78;;;;;;;-12.48;98.59;102026.15;1760470;80;20989;-57
2020/12/08 05:16:34;;;;;;;13.93;5.72;;;;;;;-12.48;98.50;102021.55;1772382;80;21180;-58
2020/12/08 05:19:09;;;;;;;15.25;6.42;;;;;;;-12.47;98.42;102020.28;1771617;80;21111;-55
2020/12/08 05:21:51;;;;;;;15.88;6.00;;;;;;;-12.39;98.32;102029.94;1766845;80;21080;-57
2020/12/08 05:24:30;;;;;;;12.47;5.05;;;;;;;-12.31;98.15;102028.32;1771119;80;21168;-56
2020/12/08 05:27:01;;;;;;;15.78;5.58;;;;;;;-12.24;97.83;102021.62;1771903;80;21123;-58
2020/12/08 05:29:30;;;;;;;18.37;6.45;;;;;;;-12.14;97.40;102037.16;1763935;80;21257;-57
2020/12/08 05:32:24;;;;;;;14.65;5.55;;;;;;;-11.94;97.17;102023.80;1777332;80;21039;-57
2020/12/08 05:34:53;;;;;;;14.73;5.87;;;;;;;-11.64;96.67;102028.01;1696100;84;21191;-58
2020/12/08 05:37:21;;;;;;;18.32;6.97;;;;;;;-11.31;95.26;102017.11;1695878;84;21201;-58
2020/12/08 05:39:50;;;;;;;18.25;6.53;;;;;;;-11.07;93.87;102023.37;1731276;80;21105;-56
2020/12/08 05:42:19;;;;;;;13.32;6.08;;;;;;;-10.87;92.35;102018.72;1770303;80;21545;-56
2020/12/08 05:44:49;;;;;;;16.20;5.95;;;;;;;-10.70;90.71;102011.12;1774433;80;21063;-56
2020/12/08 05:47:19;;;;;;;15.78;6.70;;;;;;;-10.54;89.67;102022.83;1775732;79;21615;-57
2020/12/08 05:50:01;;;;;;;18.52;6.50;;;;;;;-10.30;88.85;102020.22;1772432;80;20980;-57
2020/12/08 05:52:34;;;;;;;13.48;6.00;;;;;;;-10.04;87.11;102029.28;1766402;80;21126;-56
2020/12/08 05:55:14;;;;;;;18.55;6.83;;;;;;;-9.83;85.39;102019.50;1761016;80;22298;-58
2020/12/08 05:57:42;;;;;;;10.75;5.28;;;;;;;-9.62;83.86;102029.86;1771909;80;21518;-57
2020/12/08 06:00:26;;;;;;;16.00;5.95;;;;;;;-9.40;82.12;102031.80;1765307;80;21621;-57
2020/12/08 06:02:55;;;;;;;16.25;5.90;;;;;;;-9.30;80.29;102023.31;1772555;80;21268;-59
2020/12/08 06:05:30;;;;;;;15.58;5.85;;;;;;;-9.20;78.98;102021.13;1775690;80;21111;-59
2020/12/08 06:07:59;;;;;;;20.27;7.53;;;;;;;-9.11;78.05;102012.19;1775986;79;21359;-59
2020/12/08 06:10:27;;;;;;;18.82;7.03;;;;;;;-8.94;77.11;102013.70;1775863;80;21205;-58
2020/12/08 06:12:59;;;;;;;16.05;6.12;;;;;;;-8.81;76.00;102029.16;1779218;79;21110;-59
2020/12/08 06:15:41;;;;;;;14.83;6.40;;;;;;;-8.72;74.40;102035.38;1776225;80;21167;-58
2020/12/08 06:18:09;;;;;;;15.03;5.60;;;;;;;-8.69;73.49;102029.03;1773437;80;21048;-58
2020/12/08 06:20:37;;;;;;;12.43;6.12;;;;;;;-8.65;72.52;102028.57;1774223;80;21577;-58
2020/12/08 06:23:06;;;;;;;17.80;6.47;;;;;;;-8.61;72.35;102031.47;1776553;80;21072;-58
2020/12/08 06:25:34;;;;;;;14.63;6.12;;;;;;;-8.49;72.03;102020.37;1776150;80;21081;-57
2020/12/08 06:28:04;;;;;;;15.23;5.92;;;;;;;-8.37;71.28;102013.90;1703267;83;20978;-57
2020/12/08 06:30:32;;;;;;;13.20;5.92;;;;;;;-8.21;70.78;102014.53;1740971;81;21195;-56
2020/12/08 06:33:01;;;;;;;17.45;6.97;;;;;;;-8.06;69.90;102013.50;1718156;82;21227;-57
2020/12/08 06:35:33;;;;;;;18.00;7.97;;;;;;;-7.97;69.31;102024.75;1722163;82;21147;-57
2020/12/08 06:38:02;;;;;;;16.48;7.10;;;;;;;-7.88;68.51;102019.55;1772639;80;21104;-57
2020/12/08 06:40:31;;;;;;;15.98;7.08;;;;;;;-7.79;68.37;102026.19;1777239;80;20978;-59
2020/12/08 06:43:00;;;;;;;19.12;10.50;;;;;;;-7.67;68.03;102019.67;1762457;80;21335;-57
2020/12/08 06:45:28;;;;;;;17.70;7.42;;;;;;;-7.52;67.65;102021.13;1774897;80;21202;-59
2020/12/08 06:47:56;;;;;;;15.30;6.80;;;;;;;-7.36;66.88;102014.52;1765348;80;21155;-59
2020/12/08 06:50:31;;;;;;;22.65;7.70;;;;;;;-7.26;66.58;102025.34;1772165;80;21089;-58
2020/12/08 06:53:02;;;;;;;16.73;7.55;;;;;;;-7.16;65.56;102033.20;1772483;80;21016;-59
2020/12/08 06:55:32;;;;;;;17.37;7.50;;;;;;;-7.06;65.25;102022.46;1773711;80;21087;-58
2020/12/08 06:58:04;;;;;;;14.90;6.87;;;;;;;-6.99;64.76;102020.66;1767867;80;21202;-58
2020/12/08 07:00:32;;;;;;;16.95;6.65;;;;;;;-6.95;64.29;102023.55;1771408;80;21555;-58
2020/12/08 07:03:02;;;;;;;17.30;6.45;;;;;;;-6.92;64.20;102026.03;1766226;79;21111;-59
2020/12/08 07:05:32;;;;;;;15.25;6.20;;;;;;;-6.78;64.21;102027.89;1774044;80;21172;-58
2020/12/08 07:08:02;;;;;;;12.85;5.58;;;;;;;-6.70;63.49;102015.06;1766250;80;21168;-57
2020/12/08 07:10:31;;;;;;;15.95;6.12;;;;;;;-6.66;63.18;102025.11;1780438;80;21205;-57
2020/12/08 07:12:59;;;;;;;12.63;6.45;;;;;;;-6.55;63.10;102040.53;1740190;80;21160;-58
2020/12/08 07:15:29;;;;;;;14.95;6.87;;;;;;;-6.49;62.50;102043.80;1770478;80;21032;-58
2020/12/08 07:17:59;;;;;;;15.98;5.92;;;;;;;-6.41;62.67;102029.69;1737193;80;21028;-58
2020/12/08 07:20:27;;;;;;;15.38;6.47;;;;;;;-6.22;62.77;102028.44;1774557;80;21124;-59
2020/12/08 07:23:03;;;;;;;13.25;5.92;;;;;;;-5.98;62.08;102023.73;1775671;79;21354;-57
2020/12/08 07:25:32;;;;;;;13.10;6.40;;;;;;;-5.85;60.53;102030.16;1772942;80;21176;-59
2020/12/08 07:28:01;;;;;;;17.98;7.78;;;;;;;-5.91;60.36;102029.02;1778575;80;21031;-59
2020/12/08 07:30:30;;;;;;;12.40;6.60;;;;;;;-5.90;60.06;102025.19;1766529;80;20945;-58
2020/12/08 07:33:10;;;;;;;14.00;6.35;;;;;;;-5.86;60.27;102028.50;1700354;82;21223;-57
2020/12/08 07:35:44;;;;;;;15.23;6.47;;;;;;;-5.76;60.37;102030.38;1686498;84;21236;-57
2020/12/08 07:38:12;;;;;;;11.68;5.87;;;;;;;-5.65;59.16;102024.62;1767966;80;21131;-56
2020/12/08 07:40:41;;;;;;;13.60;6.55;;;;;;;-5.72;58.89;102033.25;1761156;80;21036;-56
2020/12/08 07:43:10;;;;;;;12.40;6.47;;;;;;;-5.81;59.10;102027.95;1777987;79;21087;-57
2020/12/08 07:45:44;;;;;;;12.60;6.40;;;;;;;-5.80;58.94;102023.70;1771716;80;21153;-59
2020/12/08 07:48:18;;;;;;;21.97;6.83;;;;;;;-5.79;58.78;102017.34;1775306;80;21144;-56
2020/12/08 07:50:46;;;;;;;14.90;5.92;;;;;;;-5.67;58.91;102020.86;1696113;82;21220;-57
2020/12/08 07:53:15;;;;;;;12.05;5.30;;;;;;;-5.58;58.59;102002.02;1742485;81;21162;-57
2020/12/08 07:55:45;;;;;;;14.58;5.95;;;;;;;-5.55;58.00;102008.30;1718472;82;21190;-57
2020/12/08 07:58:13;;;;;;;20.30;7.08;;;;;;;-5.55;57.85;102000.68;1720173;82;20999;-57
2020/12/08 08:00:41;;;;;;;15.65;6.25;;;;;;;-5.48;58.09;101995.84;1722029;82;21212;-56
2020/12/08 08:03:10;;;;;;;12.45;5.97;;;;;;;-5.40;57.72;101996.94;1718914;82;21229;-55
2020/12/08 08:05:38;;;;;;;15.65;5.92;;;;;;;-5.39;57.10;102024.00;1723491;81;21173;-56
2020/12/08 08:08:06;;;;;;;12.50;5.67;;;;;;;-5.40;57.21;101987.59;1745327;81;21098;-56
2020/12/08 08:10:34;;;;;;;18.82;6.10;;;;;;;-5.44;56.95;101986.01;1723814;82;21207;-58
2020/12/08 08:13:04;;;;;;;12.40;5.50;;;;;;;-5.41;57.26;101979.58;1742903;81;22272;-56
2020/12/08 08:15:32;;;;;;;13.50;6.17;;;;;;;-5.36;56.79;101968.02;1744102;81;21068;-58
2020/12/08 08:18:00;;;;;;;13.98;6.83;;;;;;;-5.34;56.75;101962.48;1716845;81;21128;-56
2020/12/08 08:20:29;;;;;;;14.53;7.10;;;;;;;-5.26;56.67;101956.76;1773614;80;21213;-58
2020/12/08 08:22:58;;;;;;;14.95;6.22;;;;;;;-5.18;56.55;101956.12;1780211;80;21152;-57
2020/12/08 08:25:27;;;;;;;16.32;6.35;;;;;;;-5.06;56.01;101960.48;1777280;79;21273;-57
2020/12/08 08:27:55;;;;;;;18.80;6.35;;;;;;;-5.02;56.00;101970.97;1771211;80;21164;-57
2020/12/08 08:30:24;;;;;;;15.25;6.47;;;;;;;-4.99;55.74;101952.65;1777933;80;21097;-58
2020/12/08 08:32:52;;;;;;;24.77;11.97;;;;;;;-4.97;55.69;101934.34;1778503;79;21176;-57
2020/12/08 08:35:21;;;;;;;43.83;18.80;;;;;;;-4.91;55.59;101934.63;1771729;80;21237;-57
2020/12/08 08:37:49;;;;;;;23.73;10.28;;;;;;;-4.85;55.21;101941.24;1776201;79;21299;-56
2020/12/08 08:40:17;;;;;;;21.82;8.95;;;;;;;-4.77;55.52;101950.34;1774288;80;21201;-56
2020/12/08 08:42:45;;;;;;;17.45;7.20;;;;;;;-4.71;55.27;101933.62;1763199;80;20936;-57
2020/12/08 08:45:14;;;;;;;12.65;5.83;;;;;;;-4.60;55.28;101936.31;1772151;79;21804;-57
2020/12/08 08:47:43;;;;;;;12.50;5.35;;;;;;;-4.51;54.14;101933.48;1775276;80;21081;-55
2020/12/08 08:50:11;;;;;;;14.23;5.78;;;;;;;-4.46;54.33;101945.20;1774120;80;21194;-56
2020/12/08 08:52:39;;;;;;;15.10;6.10;;;;;;;-4.43;53.34;101940.03;1770250;80;20980;-56
2020/12/08 08:55:11;;;;;;;18.00;6.25;;;;;;;-4.44;53.59;101931.16;1779615;80;21152;-55
2020/12/08 08:57:40;;;;;;;10.95;5.37;;;;;;;-4.45;53.77;101935.41;1776489;79;21079;-57
2020/12/08 09:00:10;;;;;;;17.77;6.47;;;;;;;-4.37;53.42;101937.73;1767231;80;21198;-58
2020/12/08 09:02:38;;;;;;;14.23;4.35;;;;;;;-4.32;53.48;101930.78;1772867;80;21381;-52
2020/12/08 09:05:07;;;;;;;12.70;5.53;;;;;;;-4.23;53.19;101976.79;1768296;79;21162;-58
2020/12/08 09:07:36;;;;;;;14.15;6.03;;;;;;;-4.17;52.96;101908.70;1766274;80;21252;-58
2020/12/08 09:10:04;;;;;;;11.45;5.65;;;;;;;-4.12;53.10;101906.00;1731129;80;21021;-55
2020/12/08 09:12:32;;;;;;;15.85;7.53;;;;;;;-4.08;53.00;101907.56;1776374;80;21141;-55
2020/12/08 09:15:03;;;;;;;15.23;5.65;;;;;;;-4.07;53.18;101892.67;1771430;80;21359;-53
2020/12/08 09:17:31;;;;;;;30.77;14.15;;;;;;;-3.99;52.86;101901.34;1772054;79;21184;-55
2020/12/08 09:20:01;;;;;;;32.93;14.23;;;;;;;-4.03;51.67;101893.41;1766763;80;21639;-56
2020/12/08 09:30:47;;;;;;;16.57;5.77;;;;;;;-3.79;52.44;101886.26;1790176;79;22844;-55
2020/12/08 09:33:16;;;;;;;23.10;7.37;;;;;;;-3.79;52.49;101878.61;1770269;80;21006;-55
2020/12/08 09:35:44;;;;;;;21.55;6.75;;;;;;;-3.71;52.29;101888.10;1777205;80;21190;-55
2020/12/08 09:38:12;;;;;;;20.12;7.10;;;;;;;-3.64;52.50;101873.86;1778190;80;21034;-55
2020/12/08 09:40:41;;;;;;;19.67;6.67;;;;;;;-3.49;52.13;101879.70;1783982;80;20975;-57
2020/12/08 09:43:09;;;;;;;18.65;5.97;;;;;;;-3.40;51.42;101879.86;1778933;80;21025;-55
2020/12/08 09:45:38;;;;;;;17.35;5.45;;;;;;;-3.41;51.21;101879.00;1778986;80;20931;-56
2020/12/08 09:48:06;;;;;;;15.00;5.30;;;;;;;-3.42;51.07;101876.06;1779034;80;21210;-55
2020/12/08 09:50:35;;;;;;;13.53;5.45;;;;;;;-3.37;50.77;101883.13;1783231;80;20951;-54
2020/12/08 09:53:03;;;;;;;14.45;5.62;;;;;;;-3.33;50.21;101879.59;1782550;80;21018;-57
2020/12/08 09:55:31;;;;;;;17.20;6.30;;;;;;;-3.35;50.34;101865.22;1783395;80;21030;-57
2020/12/08 09:57:59;;;;;;;14.30;5.42;;;;;;;-3.28;50.93;101871.32;1780534;80;21196;-57
2020/12/08 10:00:28;;;;;;;16.35;6.35;;;;;;;-3.16;50.48;101876.42;1772189;80;21144;-55
2020/12/08 10:02:56;;;;;;;20.50;7.12;;;;;;;-3.07;50.52;101869.73;1765519;80;21192;-56
2020/12/08 10:05:25;;;;;;;15.53;4.87;;;;;;;-2.95;50.10;101871.00;1776248;80;21073;-55
2020/12/08 10:07:53;;;;;;;16.97;5.40;;;;;;;-2.90;49.56;101889.52;1767325;80;20966;-56
2020/12/08 10:10:22;;;;;;;13.90;5.10;;;;;;;-2.91;49.56;101869.17;1770036;80;21148;-57
2020/12/08 10:12:50;;;;;;;17.57;6.83;;;;;;;-2.87;48.99;101863.89;1769301;80;21107;-56
2020/12/08 10:15:20;;;;;;;21.85;6.83;;;;;;;-2.86;49.08;101879.58;1773783;80;21074;-56
2020/12/08 10:17:48;;;;;;;15.43;6.35;;;;;;;-2.89;49.37;101868.20;1775835;80;21530;-58
2020/12/08 10:20:17;;;;;;;12.05;5.50;;;;;;;-2.92;49.53;101883.63;1773975;80;21167;-56
2020/12/08 10:22:45;;;;;;;16.20;6.72;;;;;;;-2.90;49.53;101871.66;1773674;80;21049;-59
2020/12/08 10:25:15;;;;;;;15.32;6.20;;;;;;;-2.90;49.60;101871.66;1780991;80;22169;-58
2020/12/08 10:27:43;;;;;;;11.43;5.37;;;;;;;-2.85;49.88;101859.55;1782245;79;20981;-58
2020/12/08 10:30:12;;;;;;;9.73;4.72;;;;;;;-2.73;49.90;101856.55;1728260;82;21019;-58
2020/12/08 10:32:41;;;;;;;21.17;7.47;;;;;;;-2.58;49.81;101853.00;1766793;80;22382;-57
2020/12/08 10:35:10;;;;;;;18.45;6.33;;;;;;;-2.49;49.73;101842.45;1767488;80;21203;-57
2020/12/08 10:37:38;;;;;;;10.80;5.12;;;;;;;-2.44;49.87;101837.98;1768949;81;21382;-55
2020/12/08 10:40:06;;;;;;;10.72;4.92;;;;;;;-2.43;49.44;101834.53;1761453;80;21046;-54
2020/12/08 10:42:34;;;;;;;13.43;5.72;;;;;;;-2.51;49.47;101835.28;1723386;82;21280;-57
2020/12/08 10:45:02;;;;;;;13.98;5.70;;;;;;;-2.56;49.72;101830.81;1695951;84;21146;-57
2020/12/08 10:47:30;;;;;;;18.25;7.22;;;;;;;-2.55;50.24;101831.20;1703488;84;21584;-56
2020/12/08 10:49:59;;;;;;;12.53;5.55;;;;;;;-2.41;50.09;101826.37;1762827;81;21319;-57
2020/12/08 10:52:31;;;;;;;22.02;6.80;;;;;;;-2.30;49.89;101822.95;1764897;80;21018;-56
2020/12/08 10:55:00;;;;;;;25.08;5.83;;;;;;;-2.21;49.67;101817.46;1762523;80;21026;-58
2020/12/08 10:57:28;;;;;;;13.25;5.95;;;;;;;-2.19;49.31;101829.36;1764983;80;21036;-57
2020/12/08 10:59:57;;;;;;;16.05;5.30;;;;;;;-2.27;49.30;101826.67;1764513;81;21173;-57
2020/12/08 11:02:25;;;;;;;19.85;9.03;;;;;;;-2.26;49.23;101827.50;1764804;80;21198;-56
2020/12/08 11:04:53;;;;;;;12.18;5.45;;;;;;;-2.24;49.03;101831.62;1767391;81;21050;-54
2020/12/08 11:07:22;;;;;;;18.23;6.37;;;;;;;-2.29;48.97;101846.31;1766012;81;21201;-57
2020/12/08 11:09:50;;;;;;;20.08;7.20;;;;;;;-2.30;49.29;101822.12;1761196;80;21022;-55
2020/12/08 11:12:19;;;;;;;20.40;6.45;;;;;;;-2.24;49.59;101823.97;1724264;82;21074;-56
2020/12/08 11:14:48;;;;;;;12.28;5.15;;;;;;;-2.11;49.52;101823.04;1727401;82;21377;-56
2020/12/08 11:17:17;;;;;;;12.88;5.40;;;;;;;-2.06;48.46;101821.11;1768944;80;21050;-55
2020/12/08 11:19:45;;;;;;;13.05;5.67;;;;;;;-2.10;48.38;101821.31;1763516;80;21015;-56
2020/12/08 11:22:14;;;;;;;13.22;5.28;;;;;;;-2.18;48.54;101810.13;1764376;81;21070;-58
2020/12/08 11:24:42;;;;;;;17.17;6.40;;;;;;;-2.17;49.09;101814.78;1724689;82;21030;-58
2020/12/08 11:27:16;;;;;;;20.02;6.08;;;;;;;-2.08;48.95;101815.70;1764480;80;21276;-57